Wendell, Minnesota
Current Conditions -  °F | °C
As of 1:34 PM on Thursday 18 Dec 2014 (Local Time) from KY63 Reporting Station
Overcast Overcast  
Wind Chill:   Ceiling: 7000
Heat Index: 17°   Visibility: 10mi
Dew Point: 14°   Wind: 12mph
Humidity: 86%   Direction: 150°SSE
Pressure: 30.21"   Gusts: NA
Location:  46.04°N, 96.1°W
Report Text: KY63 181934Z AUTO 15010KT 10SM SCT010 OVC070 M08/M10 A3021 RMK AO2 T10831102
Loading
Personal Weather Stations






























Interactive Weather Map New forecast layout! Learn more

10-Day Weather Forecast

Advertisements
Track Severe Weather on mobile